Time;durP1;ratioP1;P1;durP2;ratioP2;P2;SDS_P1;SDS_P2;PMS_P1;PMS_P2;Temp;Humidity;BMP_temperature;BMP_pressure;BME280_temperature;BME280_humidity;BME280_pressure;Samples;Min_cycle;Max_cycle;Signal;HPM_P1;HPM_P2
2023/07/18 00:03:09;;;;;;;4.03;2.50;;;20.00;92.20;;;;;;10120763;29;20288;-87
2023/07/18 00:08:12;;;;;;;3.47;2.45;;;20.40;91.00;;;;;;10120642;29;20212;-88
2023/07/18 00:13:14;;;;;;;2.72;2.40;;;20.90;87.60;;;;;;10120906;29;20300;-88
2023/07/18 00:18:17;;;;;;;5.22;2.70;;;21.10;84.50;;;;;;10132981;29;20240;-88
2023/07/18 00:23:20;;;;;;;3.47;2.67;;;21.40;80.10;;;;;;10105260;29;20232;-88
2023/07/18 00:28:23;;;;;;;4.40;2.70;;;21.30;80.10;;;;;;10137111;29;20220;-88
2023/07/18 00:33:26;;;;;;;5.10;2.47;;;21.40;78.90;;;;;;10119684;29;20268;-87
2023/07/18 00:38:28;;;;;;;2.55;2.15;;;21.10;79.70;;;;;;10119516;29;20625;-88
2023/07/18 00:43:34;;;;;;;2.70;2.17;;;21.10;80.20;;;;;;10135425;29;20244;-88
2023/07/18 00:48:38;;;;;;;3.53;2.58;;;21.10;80.80;;;;;;10124395;29;20243;-87
2023/07/18 00:53:41;;;;;;;3.35;2.20;;;20.90;80.90;;;;;;10124796;29;20324;-87
2023/07/18 00:58:44;;;;;;;3.90;3.10;;;20.90;81.30;;;;;;10133875;29;20236;-88
2023/07/18 01:03:47;;;;;;;2.70;2.35;;;20.90;81.10;;;;;;10118773;29;20268;-88
2023/07/18 01:08:49;;;;;;;3.15;2.58;;;20.80;82.30;;;;;;10136087;29;20276;-88
2023/07/18 01:13:52;;;;;;;5.10;2.53;;;20.80;82.30;;;;;;10135923;29;20319;-88
2023/07/18 01:18:54;;;;;;;3.33;2.45;;;20.60;83.00;;;;;;10116549;29;20284;-88
2023/07/18 01:23:57;;;;;;;2.67;2.20;;;20.70;83.30;;;;;;10116308;29;20295;-88
2023/07/18 01:28:59;;;;;;;3.65;2.30;;;20.60;83.80;;;;;;10132969;29;20280;-88
2023/07/18 01:34:04;;;;;;;3.95;2.80;;;20.70;82.90;;;;;;10115240;29;20292;-88
2023/07/18 01:39:08;;;;;;;2.55;2.17;;;20.60;82.70;;;;;;10101021;29;20307;-88
2023/07/18 01:44:10;;;;;;;3.13;2.00;;;20.70;82.70;;;;;;10132985;29;20311;-88
2023/07/18 01:49:13;;;;;;;5.70;2.08;;;20.60;82.50;;;;;;10133390;29;20235;-88
2023/07/18 01:54:15;;;;;;;2.55;1.98;;;20.40;83.60;;;;;;10115442;29;20346;-88
2023/07/18 01:59:18;;;;;;;3.30;2.17;;;20.20;84.20;;;;;;10114933;29;20216;-88
2023/07/18 02:04:21;;;;;;;3.05;2.53;;;20.10;85.80;;;;;;10146591;29;20263;-88
2023/07/18 02:09:24;;;;;;;4.57;2.38;;;20.10;86.80;;;;;;10111811;29;20252;-88
2023/07/18 02:14:26;;;;;;;4.32;2.65;;;20.00;85.70;;;;;;10112428;29;20267;-88
2023/07/18 02:19:29;;;;;;;3.67;2.28;;;20.00;87.40;;;;;;10113590;29;20240;-88
2023/07/18 02:24:32;;;;;;;3.03;1.75;;;20.20;83.90;;;;;;10130008;29;20284;-88
2023/07/18 02:29:34;;;;;;;2.25;1.55;;;20.30;82.80;;;;;;10105690;29;20243;-88
2023/07/18 02:34:38;;;;;;;9.05;2.05;;;20.20;78.20;;;;;;10129998;29;20275;-88
2023/07/18 02:39:44;;;;;;;3.17;1.73;;;20.30;79.50;;;;;;10112324;29;20324;-88
2023/07/18 02:44:48;;;;;;;4.60;1.80;;;20.30;74.40;;;;;;10129954;29;20248;-88
2023/07/18 02:49:50;;;;;;;1.88;1.50;;;19.80;70.30;;;;;;10112939;29;20243;-88
2023/07/18 02:54:53;;;;;;;2.75;1.77;;;19.60;79.00;;;;;;10112786;29;20566;-88
2023/07/18 02:59:57;;;;;;;2.33;1.45;;;19.40;81.40;;;;;;10112506;29;20244;-88
2023/07/18 03:04:59;;;;;;;1.33;1.23;;;19.30;80.60;;;;;;10129147;29;20332;-88
2023/07/18 03:10:03;;;;;;;5.65;1.63;;;19.20;81.40;;;;;;10111803;29;20295;-88
2023/07/18 03:15:07;;;;;;;2.17;1.30;;;19.10;82.80;;;;;;10111729;29;20626;-88
2023/07/18 03:20:19;;;;;;;2.88;1.83;;;;;;;;;;10111682;29;20313;-89
2023/07/18 03:25:24;;;;;;;2.67;1.65;;;18.10;79.00;;;;;;10128819;29;20303;-89
2023/07/18 03:30:27;;;;;;;2.00;1.52;;;17.30;89.70;;;;;;10113997;29;20260;-89
2023/07/18 03:35:29;;;;;;;2.35;1.65;;;17.30;90.20;;;;;;10128503;29;20647;-89
2023/07/18 03:40:33;;;;;;;1.77;1.45;;;16.70;92.90;;;;;;10127983;29;20256;-89
2023/07/18 03:45:35;;;;;;;2.92;1.80;;;16.60;97.10;;;;;;10110717;29;20276;-89
2023/07/18 03:50:39;;;;;;;2.78;1.52;;;17.10;96.90;;;;;;10137729;29;20263;-88
2023/07/18 03:55:44;;;;;;;5.20;2.22;;;17.50;96.10;;;;;;10139070;29;20244;-89
2023/07/18 04:00:47;;;;;;;2.70;2.10;;;18.00;96.20;;;;;;10109274;29;20684;-89
2023/07/18 04:05:51;;;;;;;4.40;2.55;;;18.30;95.30;;;;;;10111183;29;20243;-89
2023/07/18 04:10:54;;;;;;;1.73;1.48;;;18.40;93.90;;;;;;10111186;29;20730;-88
2023/07/18 04:15:58;;;;;;;1.70;1.10;;;18.50;93.80;;;;;;10112422;29;21061;-89
2023/07/18 04:21:01;;;;;;;2.25;1.75;;;18.70;93.60;;;;;;10129069;29;20243;-89
2023/07/18 04:26:04;;;;;;;1.52;1.40;;;19.30;92.60;;;;;;10126855;29;20247;-88
2023/07/18 04:31:06;;;;;;;5.13;1.45;;;19.40;87.30;;;;;;10126967;29;20297;-89
2023/07/18 04:36:09;;;;;;;1.38;1.17;;;19.60;85.30;;;;;;10110625;29;20692;-89
2023/07/18 04:41:18;;;;;;;1.42;1.25;;;19.60;87.90;;;;;;10112940;29;20298;-90
2023/07/18 04:46:21;;;;;;;2.75;1.73;;;20.20;86.70;;;;;;10105939;29;20252;-90
2023/07/18 04:51:24;;;;;;;2.10;1.30;;;20.40;85.30;;;;;;10129663;29;20263;-89
2023/07/18 04:56:27;;;;;;;2.13;1.20;;;21.20;72.20;;;;;;10095480;29;20244;-88
2023/07/18 05:01:29;;;;;;;1.75;1.20;;;21.00;72.70;;;;;;10120825;29;20252;-89
2023/07/18 05:06:32;;;;;;;2.53;1.73;;;21.40;75.70;;;;;;10111033;29;20587;-89
2023/07/18 05:11:35;;;;;;;3.83;1.42;;;22.10;52.60;;;;;;10095550;29;20316;-88
2023/07/18 05:16:37;;;;;;;2.42;1.08;;;21.60;47.20;;;;;;10101521;29;20244;-89
2023/07/18 05:21:40;;;;;;;3.30;1.00;;;20.90;49.70;;;;;;10116633;29;20316;-88
2023/07/18 05:26:42;;;;;;;3.03;1.20;;;21.00;50.00;;;;;;10137426;29;20244;-88
2023/07/18 05:31:45;;;;;;;3.50;1.23;;;21.10;47.80;;;;;;10131059;29;20326;-89
2023/07/18 05:36:47;;;;;;;1.92;0.90;;;20.80;50.70;;;;;;10114301;29;20640;-88
2023/07/18 05:41:50;;;;;;;1.50;1.15;;;21.20;51.30;;;;;;10115867;29;20256;-88
2023/07/18 05:46:52;;;;;;;2.47;1.00;;;20.40;49.70;;;;;;10116650;29;20254;-88
2023/07/18 05:51:55;;;;;;;1.40;1.00;;;20.40;53.60;;;;;;10113511;29;20264;-88
2023/07/18 05:57:00;;;;;;;5.68;1.10;;;20.40;57.60;;;;;;10124084;29;20615;-88
2023/07/18 06:02:04;;;;;;;4.20;1.35;;;20.40;55.40;;;;;;10112566;29;20640;-88
2023/07/18 06:07:06;;;;;;;3.83;1.40;;;20.20;58.40;;;;;;10098818;29;20315;-88
2023/07/18 06:12:16;;;;;;;1.42;1.02;;;20.40;58.60;;;;;;10114255;29;20286;-89
2023/07/18 06:17:18;;;;;;;3.15;1.00;;;20.70;58.20;;;;;;10074976;29;21029;-88
2023/07/18 06:22:21;;;;;;;1.92;1.13;;;20.80;57.90;;;;;;10106072;29;20251;-88
2023/07/18 06:27:26;;;;;;;2.97;1.23;;;20.50;55.50;;;;;;10129617;29;20255;-89
2023/07/18 06:32:30;;;;;;;3.55;1.33;;;20.80;58.20;;;;;;10113514;29;20722;-89
2023/07/18 06:37:32;;;;;;;3.70;1.38;;;21.00;55.30;;;;;;10130434;29;20239;-89
2023/07/18 06:42:35;;;;;;;3.58;1.30;;;21.40;54.80;;;;;;10129498;29;20728;-88
2023/07/18 06:47:37;;;;;;;2.72;1.08;;;21.40;51.30;;;;;;10127495;29;20703;-88
2023/07/18 06:52:40;;;;;;;4.05;1.60;;;21.50;51.50;;;;;;10129159;29;20271;-88
2023/07/18 06:57:43;;;;;;;2.53;1.00;;;21.90;47.30;;;;;;10129527;29;20232;-88
2023/07/18 07:02:46;;;;;;;0.80;0.80;;;21.90;48.90;;;;;;10126529;29;20247;-88
2023/07/18 07:07:49;;;;;;;1.13;0.98;;;22.20;50.50;;;;;;10110487;29;20252;-89
2023/07/18 07:12:54;;;;;;;2.97;1.38;;;22.70;48.30;;;;;;10126051;29;20323;-88
2023/07/18 07:18:00;;;;;;;1.35;0.93;;;23.20;43.70;;;;;;10113172;29;20658;-89
2023/07/18 07:23:03;;;;;;;3.10;0.65;;;23.30;45.60;;;;;;10120033;29;20774;-89
2023/07/18 07:28:05;;;;;;;0.75;0.60;;;23.40;43.80;;;;;;10126358;29;20248;-90
2023/07/18 07:33:08;;;;;;;4.82;1.10;;;23.70;42.80;;;;;;10111297;29;20755;-89
2023/07/18 07:38:11;;;;;;;1.05;0.70;;;23.70;40.30;;;;;;10109754;29;20722;-90
2023/07/18 07:43:14;;;;;;;3.17;1.05;;;23.10;42.00;;;;;;10097950;29;20267;-90
2023/07/18 07:48:16;;;;;;;4.15;1.15;;;23.50;40.00;;;;;;10126751;29;20295;-89
2023/07/18 07:53:19;;;;;;;1.83;1.20;;;23.40;35.80;;;;;;10126672;29;20319;-89
2023/07/18 07:58:22;;;;;;;2.15;0.95;;;23.40;35.00;;;;;;10125691;29;20326;-90
2023/07/18 08:03:24;;;;;;;1.42;0.98;;;23.50;35.90;;;;;;10122330;29;20244;-89
2023/07/18 08:08:27;;;;;;;1.95;1.40;;;23.80;34.00;;;;;;10126825;29;20280;-90
2023/07/18 08:13:30;;;;;;;2.80;1.08;;;24.20;37.70;;;;;;10113157;29;20271;-89
2023/07/18 08:18:33;;;;;;;3.17;1.20;;;24.30;28.10;;;;;;10136442;29;20232;-89
2023/07/18 08:23:35;;;;;;;3.40;1.20;;;24.00;33.60;;;;;;10119131;29;20240;-89
2023/07/18 08:28:38;;;;;;;1.73;1.40;;;24.00;28.20;;;;;;10122678;29;20245;-90
2023/07/18 08:33:41;;;;;;;1.75;1.25;;;24.20;35.20;;;;;;10132523;29;20336;-89
2023/07/18 08:38:49;;;;;;;1.50;0.98;;;24.20;32.30;;;;;;10133853;29;20236;-89
2023/07/18 08:43:52;;;;;;;1.30;1.20;;;24.60;34.30;;;;;;10134146;29;20292;-90
2023/07/18 08:48:55;;;;;;;2.10;1.35;;;24.90;34.00;;;;;;10115106;29;20287;-89
2023/07/18 08:53:58;;;;;;;1.25;0.82;;;25.10;29.90;;;;;;10132376;29;20295;-89
2023/07/18 08:59:01;;;;;;;1.90;1.05;;;25.40;31.50;;;;;;10132594;29;20311;-88
2023/07/18 09:04:04;;;;;;;3.17;1.67;;;25.40;27.80;;;;;;10099085;29;20244;-89
2023/07/18 09:09:15;;;;;;;1.63;1.00;;;25.30;25.60;;;;;;10116515;29;20276;-90
2023/07/18 09:14:26;;;;;;;2.58;0.85;;;24.70;27.40;;;;;;10101450;29;20260;-90
2023/07/18 09:19:37;;;;;;;3.13;1.63;;;24.90;22.50;;;;;;10116746;29;20247;-88
2023/07/18 09:24:41;;;;;;;5.72;1.38;;;24.80;21.60;;;;;;10156541;29;20216;-96
2023/07/18 09:29:47;;;;;;;2.58;1.40;;;24.50;22.30;;;;;;10121895;29;20272;-96
2023/07/18 09:35:00;;;;;;;1.52;1.20;;;24.20;21.90;;;;;;10126110;29;20731;-94
2023/07/18 09:40:03;;;;;;;3.05;1.15;;;24.20;22.40;;;;;;10127037;29;20245;-93
2023/07/18 09:45:06;;;;;;;3.92;1.15;;;24.20;20.80;;;;;;10126500;29;20237;-94
2023/07/18 09:50:13;;;;;;;2.13;0.65;;;24.10;21.30;;;;;;10112028;29;20636;-95
2023/07/18 09:55:27;;;;;;;1.10;0.70;;;24.20;22.20;;;;;;10129813;29;20236;-94
2023/07/18 10:00:30;;;;;;;6.53;1.52;;;24.50;19.40;;;;;;10123074;29;20244;-96
2023/07/18 10:05:33;;;;;;;1.77;1.05;;;24.60;21.80;;;;;;10125872;29;20245;-96
2023/07/18 10:10:36;;;;;;;2.38;1.42;;;24.70;20.40;;;;;;10142049;29;20249;-96
2023/07/18 10:16:14;;;;;;;1.23;1.13;;;24.70;20.20;;;;;;10110724;29;20236;-95
2023/07/18 10:21:31;;;;;;;1.95;1.58;;;25.00;19.70;;;;;;10115928;29;20241;-96
2023/07/18 10:26:34;;;;;;;1.58;1.05;;;25.00;19.50;;;;;;10119762;29;20292;-96
2023/07/18 10:31:37;;;;;;;3.42;1.45;;;25.10;19.10;;;;;;10135229;29;20216;-94
2023/07/18 10:36:53;;;;;;;5.25;1.40;;;25.10;18.30;;;;;;10113482;29;20598;-96
2023/07/18 10:42:06;;;;;;;1.40;0.95;;;25.20;19.70;;;;;;10124981;29;20319;-88
2023/07/18 10:47:17;;;;;;;1.58;0.82;;;25.60;17.60;;;;;;10132624;29;20260;-85
2023/07/18 10:52:20;;;;;;;1.38;1.02;;;25.60;15.80;;;;;;10126881;29;20668;-85
2023/07/18 10:57:34;;;;;;;1.45;0.90;;;25.50;17.10;;;;;;10119764;29;20239;-85
2023/07/18 11:02:41;;;;;;;3.33;0.95;;;25.80;16.40;;;;;;10167210;29;20817;-85
2023/07/18 11:07:48;;;;;;;0.90;0.60;;;26.10;17.30;;;;;;10092476;29;20280;-85
2023/07/18 11:12:52;;;;;;;1.63;0.98;;;26.40;15.80;;;;;;10113119;29;20272;-84
2023/07/18 11:17:55;;;;;;;2.95;0.73;;;26.10;12.70;;;;;;10110495;29;20699;-85
2023/07/18 11:22:58;;;;;;;1.83;0.98;;;26.00;13.50;;;;;;10127773;29;20243;-85
2023/07/18 11:28:03;;;;;;;2.38;1.20;;;25.90;15.60;;;;;;10110345;29;20889;-85
2023/07/18 11:33:15;;;;;;;1.10;0.77;;;26.00;15.50;;;;;;10120271;29;20682;-85
2023/07/18 11:38:21;;;;;;;1.45;0.60;;;;;;;;;;10099422;29;20750;-85
2023/07/18 11:43:29;;;;;;;1.25;0.50;;;26.80;17.40;;;;;;10075113;29;20724;-85
2023/07/18 11:48:33;;;;;;;5.30;1.20;;;27.10;17.20;;;;;;10093545;29;20236;-85
2023/07/18 11:53:36;;;;;;;1.92;0.90;;;27.20;12.90;;;;;;10079833;29;20747;-85
2023/07/18 11:58:38;;;;;;;1.75;0.90;;;26.90;14.60;;;;;;10081183;29;20304;-85
2023/07/18 12:03:40;;;;;;;1.98;0.60;;;26.70;15.60;;;;;;10096380;29;20244;-85
2023/07/18 12:08:43;;;;;;;4.20;0.95;;;26.30;13.20;;;;;;10117615;29;20248;-85
2023/07/18 12:13:46;;;;;;;3.08;1.02;;;26.20;15.70;;;;;;10116275;29;20807;-85
2023/07/18 12:18:48;;;;;;;1.23;0.70;;;25.90;15.20;;;;;;10134899;29;20240;-85
2023/07/18 12:23:51;;;;;;;1.20;0.82;;;25.80;16.70;;;;;;10102859;29;20708;-85
2023/07/18 12:28:54;;;;;;;1.40;0.75;;;26.00;18.10;;;;;;10121763;29;20251;-86
2023/07/18 12:33:56;;;;;;;1.40;0.73;;;26.10;17.00;;;;;;10088750;29;20268;-86
2023/07/18 12:38:59;;;;;;;2.17;0.90;;;26.20;17.10;;;;;;10092033;29;20673;-86
2023/07/18 12:44:02;;;;;;;1.23;0.77;;;26.50;16.50;;;;;;10101457;29;20272;-86
2023/07/18 12:49:04;;;;;;;2.63;1.08;;;26.70;17.10;;;;;;10109801;29;20833;-86
2023/07/18 12:54:08;;;;;;;1.65;1.02;;;27.00;16.50;;;;;;10131511;29;20264;-86
2023/07/18 12:59:10;;;;;;;2.17;1.23;;;27.10;13.70;;;;;;10130061;29;20307;-86
2023/07/18 13:04:13;;;;;;;1.10;0.80;;;27.30;16.90;;;;;;10112198;29;20244;-86
2023/07/18 13:09:15;;;;;;;1.52;0.80;;;27.20;13.30;;;;;;10104856;29;20328;-86
2023/07/18 13:14:21;;;;;;;2.47;0.93;;;27.20;11.70;;;;;;10093630;29;20260;-86
2023/07/18 13:19:53;;;;;;;1.52;0.85;;;27.30;13.70;;;;;;10096524;29;20241;-86
2023/07/18 13:24:56;;;;;;;2.00;0.80;;;27.00;9.20;;;;;;10098897;29;20640;-86
2023/07/18 13:29:58;;;;;;;1.33;0.70;;;26.80;9.10;;;;;;10122839;29;20245;-86
2023/07/18 13:35:01;;;;;;;1.15;0.65;;;26.70;11.80;;;;;;10093180;29;20268;-86
2023/07/18 13:40:04;;;;;;;1.10;0.70;;;26.50;14.30;;;;;;10075711;29;20704;-87
2023/07/18 13:45:08;;;;;;;5.70;0.95;;;26.50;11.90;;;;;;10090534;29;20276;-93
2023/07/18 13:50:12;;;;;;;1.42;0.93;;;26.50;10.10;;;;;;10077790;29;20217;-93
2023/07/18 13:55:18;;;;;;;1.10;0.93;;;26.20;9.70;;;;;;10110773;29;20317;-93
2023/07/18 14:00:21;;;;;;;2.25;1.10;;;25.90;10.20;;;;;;10077587;29;20260;-93
2023/07/18 14:05:29;;;;;;;2.22;1.00;;;26.10;9.10;;;;;;10095095;29;20237;-93
2023/07/18 14:10:32;;;;;;;1.55;0.93;;;26.20;9.70;;;;;;10075337;29;20736;-87
2023/07/18 14:15:35;;;;;;;1.35;0.52;;;26.30;12.90;;;;;;10101970;29;20271;-86
2023/07/18 14:20:37;;;;;;;1.63;0.85;;;26.70;10.00;;;;;;10121332;29;20293;-86
2023/07/18 14:25:40;;;;;;;3.53;0.90;;;27.10;8.30;;;;;;10111969;29;20240;-87
2023/07/18 14:30:43;;;;;;;0.77;0.55;;;26.90;7.80;;;;;;10130954;29;20251;-87
2023/07/18 14:35:46;;;;;;;1.75;0.70;;;27.10;9.50;;;;;;10127745;29;20387;-87
2023/07/18 14:40:49;;;;;;;3.70;0.85;;;27.40;10.60;;;;;;10092258;29;20313;-87
2023/07/18 14:45:52;;;;;;;1.80;0.70;;;27.50;8.50;;;;;;10074215;29;20280;-87
2023/07/18 14:50:58;;;;;;;0.75;0.70;;;27.30;8.50;;;;;;10075874;29;20248;-87
2023/07/18 14:56:03;;;;;;;4.30;0.93;;;27.20;10.30;;;;;;10091006;29;20277;-87
2023/07/18 15:01:06;;;;;;;2.33;0.77;;;27.00;10.10;;;;;;10074991;29;20281;-87
2023/07/18 15:06:09;;;;;;;0.93;0.70;;;26.90;10.90;;;;;;10091183;29;20336;-87
2023/07/18 15:11:11;;;;;;;1.42;0.90;;;26.90;11.30;;;;;;10090239;29;20277;-87
2023/07/18 15:16:14;;;;;;;2.83;0.93;;;27.10;9.60;;;;;;10073965;29;20312;-87
2023/07/18 15:21:17;;;;;;;2.78;1.02;;;27.30;9.20;;;;;;10125508;29;20240;-86
2023/07/18 15:26:19;;;;;;;3.13;1.15;;;27.40;9.10;;;;;;10097212;29;20260;-88
2023/07/18 15:31:22;;;;;;;2.63;0.80;;;27.50;12.50;;;;;;10132032;29;20216;-89
2023/07/18 15:36:27;;;;;;;1.20;0.75;;;27.50;10.10;;;;;;10119009;29;20271;-87
2023/07/18 15:47:26;;;;;;;2.25;1.35;;;27.20;8.90;;;;;;9989916;23;20331;-88
2023/07/18 15:52:28;;;;;;;2.35;1.02;;;27.00;7.80;;;;;;10127725;29;20304;-87
2023/07/18 15:57:31;;;;;;;1.65;0.68;;;27.00;7.50;;;;;;10122589;29;20652;-85
2023/07/18 16:02:37;;;;;;;7.80;1.70;;;26.90;7.80;;;;;;10122333;29;20679;-87
2023/07/18 16:07:39;;;;;;;1.80;0.80;;;26.90;7.20;;;;;;10129069;29;20636;-87
2023/07/18 16:12:42;;;;;;;1.67;0.80;;;27.00;7.60;;;;;;10127102;29;20252;-87
2023/07/18 16:17:45;;;;;;;2.72;0.90;;;26.80;7.60;;;;;;10126029;29;20264;-87
2023/07/18 16:22:50;;;;;;;1.80;0.85;;;26.50;7.80;;;;;;10089779;29;20658;-87
2023/07/18 16:27:53;;;;;;;2.30;0.90;;;26.60;7.90;;;;;;10116276;29;20255;-87
2023/07/18 16:32:56;;;;;;;1.67;1.52;;;26.70;8.40;;;;;;10110905;29;20247;-87
2023/07/18 16:37:59;;;;;;;2.55;0.93;;;26.90;9.60;;;;;;10099575;29;20276;-87
2023/07/18 16:43:04;;;;;;;1.33;1.20;;;27.10;8.70;;;;;;10098245;29;20715;-87
2023/07/18 16:48:07;;;;;;;1.20;0.80;;;27.30;8.10;;;;;;10133641;29;20636;-87
2023/07/18 16:53:10;;;;;;;1.52;0.80;;;27.20;9.40;;;;;;10124032;29;20252;-87
2023/07/18 16:58:13;;;;;;;1.95;0.93;;;27.00;9.30;;;;;;10082773;29;20321;-88
2023/07/18 17:03:16;;;;;;;7.75;0.90;;;27.10;9.60;;;;;;10109715;29;20248;-87
2023/07/18 17:22:20;;;;;;;1.33;0.90;;;26.80;7.90;;;;;;10500343;28;20732;-81
2023/07/18 17:27:23;;;;;;;1.88;0.82;;;26.10;11.70;;;;;;10473584;28;20253;-80
2023/07/18 17:32:25;;;;;;;1.35;0.70;;;26.00;8.10;;;;;;10468532;28;20681;-80
2023/07/18 17:37:28;;;;;;;3.63;0.90;;;25.80;7.40;;;;;;10467971;28;20256;-80
2023/07/18 17:42:30;;;;;;;2.65;1.00;;;25.20;7.80;;;;;;10475205;28;20279;-81
2023/07/18 17:47:33;;;;;;;4.13;1.05;;;25.00;7.90;;;;;;10476196;28;20343;-81
2023/07/18 17:52:35;;;;;;;0.77;0.60;;;24.80;8.00;;;;;;10483840;28;20274;-81
2023/07/18 17:57:39;;;;;;;5.68;1.40;;;24.70;8.30;;;;;;10481430;28;20576;-81
2023/07/18 18:02:42;;;;;;;2.67;0.95;;;24.60;8.50;;;;;;10479890;28;20211;-81
2023/07/18 18:07:44;;;;;;;4.88;1.17;;;24.40;8.50;;;;;;10487848;28;20223;-82
2023/07/18 18:12:47;;;;;;;2.05;0.95;;;24.20;9.60;;;;;;10466630;28;20241;-81
2023/07/18 18:17:49;;;;;;;3.50;1.30;;;23.90;11.10;;;;;;10479164;28;20646;-81
2023/07/18 18:22:52;;;;;;;3.60;1.30;;;23.80;11.80;;;;;;10500096;28;20640;-81
2023/07/18 18:27:55;;;;;;;2.67;1.38;;;23.70;12.30;;;;;;10478506;28;20816;-80
2023/07/18 18:32:57;;;;;;;5.45;1.42;;;23.40;13.70;;;;;;10469464;28;20216;-79
2023/07/18 18:38:00;;;;;;;2.67;1.15;;;23.20;14.10;;;;;;10503652;28;20202;-80
2023/07/18 18:43:03;;;;;;;2.38;1.15;;;22.80;16.40;;;;;;9788083;28;10000345;-78
2023/07/18 18:48:06;;;;;;;2.45;1.38;;;22.20;17.80;;;;;;10488592;28;20720;-80
2023/07/18 18:53:09;;;;;;;2.13;1.27;;;21.70;20.10;;;;;;10492898;28;20620;-79
2023/07/18 18:58:11;;;;;;;13.90;1.60;;;21.20;21.80;;;;;;10475425;28;20235;-79
2023/07/18 19:03:16;;;;;;;4.20;1.52;;;20.50;26.20;;;;;;10474538;28;20823;-78
2023/07/18 19:08:18;;;;;;;3.75;1.25;;;19.80;26.40;;;;;;10484545;28;20319;-81
2023/07/18 19:13:23;;;;;;;5.35;1.48;;;19.50;27.10;;;;;;10497231;28;20203;-81
2023/07/18 19:18:26;;;;;;;3.75;1.60;;;19.50;27.80;;;;;;10491305;28;20226;-80
2023/07/18 19:23:29;;;;;;;3.47;0.95;;;19.50;29.30;;;;;;10488840;28;20234;-82
2023/07/18 19:28:32;;;;;;;13.50;1.90;;;19.50;29.40;;;;;;10465456;28;20304;-82
2023/07/18 19:33:34;;;;;;;11.48;2.63;;;19.40;31.20;;;;;;10489869;28;20663;-82
2023/07/18 19:38:37;;;;;;;7.50;1.63;;;19.20;33.10;;;;;;10494440;28;20283;-82
2023/07/18 19:43:42;;;;;;;7.05;1.80;;;19.00;36.00;;;;;;10493007;28;20256;-84
2023/07/18 19:48:45;;;;;;;9.63;2.58;;;18.70;34.90;;;;;;10458823;28;20262;-83
2023/07/18 19:53:48;;;;;;;9.48;2.40;;;18.50;38.20;;;;;;10493223;28;20978;-82
2023/07/18 19:58:50;;;;;;;6.18;1.50;;;18.40;40.80;;;;;;10477951;28;20634;-84
2023/07/18 20:03:53;;;;;;;15.52;2.53;;;18.40;41.40;;;;;;10492714;28;20229;-83
2023/07/18 20:09:02;;;;;;;8.75;2.22;;;18.10;42.70;;;;;;10491323;28;20288;-83
2023/07/18 20:14:04;;;;;;;12.75;2.85;;;18.10;44.60;;;;;;10492457;28;20674;-83
2023/07/18 20:19:07;;;;;;;13.57;2.72;;;18.00;47.70;;;;;;10491976;28;20246;-82
2023/07/18 20:24:10;;;;;;;9.52;2.25;;;17.60;49.60;;;;;;10491318;28;20252;-82
2023/07/18 20:29:12;;;;;;;6.57;2.13;;;17.80;51.80;;;;;;10466826;28;20246;-81
2023/07/18 20:34:15;;;;;;;5.65;1.30;;;16.90;56.10;;;;;;10458570;28;20234;-81
2023/07/18 20:39:17;;;;;;;11.35;1.75;;;16.50;63.90;;;;;;10484870;28;20299;-78
2023/07/18 20:44:20;;;;;;;9.00;1.85;;;16.80;68.30;;;;;;10489970;28;20221;-79
2023/07/18 20:49:26;;;;;;;18.58;2.83;;;16.90;71.30;;;;;;10491441;28;20254;-79
2023/07/18 20:54:32;;;;;;;7.93;2.15;;;16.90;72.90;;;;;;10472647;28;20233;-79
2023/07/18 20:59:34;;;;;;;8.98;2.35;;;16.80;72.90;;;;;;10472994;28;20241;-79
2023/07/18 21:04:37;;;;;;;8.70;2.22;;;16.50;75.30;;;;;;10487476;28;20288;-79
2023/07/18 21:09:40;;;;;;;10.35;2.50;;;16.40;76.10;;;;;;10482208;28;20249;-79
2023/07/18 21:14:42;;;;;;;8.38;1.92;;;16.30;75.00;;;;;;10479626;28;20229;-80
2023/07/18 21:19:45;;;;;;;17.52;2.72;;;16.50;76.90;;;;;;10470779;28;20261;-79
2023/07/18 21:24:50;;;;;;;9.98;2.20;;;16.70;76.90;;;;;;10488715;28;20230;-80
2023/07/18 21:29:54;;;;;;;16.58;2.17;;;16.40;76.70;;;;;;10465603;28;20724;-78
2023/07/18 21:34:57;;;;;;;10.48;2.20;;;16.10;78.80;;;;;;10441975;28;20307;-80
2023/07/18 21:39:59;;;;;;;3.28;1.58;;;16.50;77.10;;;;;;10461868;28;20242;-81
2023/07/18 21:45:02;;;;;;;18.05;2.55;;;16.50;77.90;;;;;;10469959;28;20636;-80
2023/07/18 21:50:05;;;;;;;3.70;1.83;;;16.60;78.20;;;;;;10490092;28;20249;-80
2023/07/18 21:55:07;;;;;;;13.27;2.38;;;16.10;80.80;;;;;;10491183;28;20299;-80
2023/07/18 22:00:11;;;;;;;12.05;2.55;;;15.90;78.80;;;;;;10497463;28;20229;-80
2023/07/18 22:05:13;;;;;;;7.53;2.20;;;15.50;84.20;;;;;;10479912;28;20675;-81
2023/07/18 22:10:16;;;;;;;4.22;1.23;;;15.40;86.50;;;;;;10455478;28;20694;-80
2023/07/18 22:15:19;;;;;;;9.50;2.42;;;15.80;91.60;;;;;;10477677;28;20279;-81
2023/07/18 22:20:23;;;;;;;11.07;2.25;;;15.90;87.10;;;;;;10461365;28;20229;-80
2023/07/18 22:25:26;;;;;;;10.25;2.53;;;15.20;91.30;;;;;;10496183;28;20237;-80
2023/07/18 22:30:28;;;;;;;3.35;1.80;;;15.50;90.80;;;;;;10494367;28;20295;-80
2023/07/18 22:35:31;;;;;;;13.82;2.13;;;15.20;92.40;;;;;;10463273;28;20964;-80
2023/07/18 22:40:33;;;;;;;10.70;2.83;;;15.20;92.30;;;;;;10435681;28;20207;-80
2023/07/18 22:45:36;;;;;;;15.65;3.30;;;15.10;92.70;;;;;;10454030;28;20231;-80
2023/07/18 22:50:38;;;;;;;12.48;3.33;;;14.80;94.10;;;;;;10468845;28;20249;-80
2023/07/18 22:55:41;;;;;;;12.23;2.80;;;14.90;94.80;;;;;;10494875;28;20578;-81
2023/07/18 23:00:43;;;;;;;10.75;3.13;;;14.90;95.10;;;;;;10453441;28;20234;-80
2023/07/18 23:05:46;;;;;;;15.65;3.38;;;14.60;95.50;;;;;;10453304;28;20226;-81
2023/07/18 23:10:48;;;;;;;11.32;3.70;;;14.50;96.80;;;;;;10452757;28;20299;-80
2023/07/18 23:15:52;;;;;;;14.30;2.97;;;14.50;97.10;;;;;;10479408;28;20699;-80
2023/07/18 23:20:56;;;;;;;11.38;2.60;;;14.70;97.00;;;;;;10491331;28;20292;-80
2023/07/18 23:25:58;;;;;;;20.33;3.60;;;14.80;97.90;;;;;;10459798;28;20753;-80
2023/07/18 23:31:03;;;;;;;11.48;2.58;;;14.50;96.80;;;;;;10472210;28;20307;-80
2023/07/18 23:36:06;;;;;;;7.05;2.13;;;14.30;97.80;;;;;;10489003;28;20206;-81
2023/07/18 23:41:08;;;;;;;6.30;2.35;;;14.40;98.60;;;;;;10493200;28;20287;-80
2023/07/18 23:46:11;;;;;;;6.70;2.55;;;14.40;99.10;;;;;;10475134;28;20241;-80
2023/07/18 23:51:14;;;;;;;11.55;2.53;;;14.20;99.90;;;;;;10475489;28;20299;-80
2023/07/18 23:56:16;;;;;;;6.00;2.72;;;14.30;99.90;;;;;;10474190;28;20233;-80
